sensor_id;sensor_type;location;lat;lon;timestamp;P1;durP1;ratioP1;P2;durP2;ratioP2
46593;SDS011;35342;52.378;4.648;2022-07-12T00:01:48;4.40;;;3.78;;
46593;SDS011;35342;52.378;4.648;2022-07-12T00:04:14;11.07;;;3.25;;
46593;SDS011;35342;52.378;4.648;2022-07-12T00:06:39;3.28;;;2.70;;
46593;SDS011;35342;52.378;4.648;2022-07-12T00:09:05;4.38;;;2.97;;
46593;SDS011;35342;52.378;4.648;2022-07-12T00:11:31;3.38;;;3.05;;
46593;SDS011;35342;52.378;4.648;2022-07-12T00:13:56;4.80;;;3.13;;
46593;SDS011;35342;52.378;4.648;2022-07-12T00:16:22;3.80;;;3.03;;
46593;SDS011;35342;52.378;4.648;2022-07-12T00:18:48;3.60;;;2.90;;
46593;SDS011;35342;52.378;4.648;2022-07-12T00:21:13;3.50;;;2.72;;
46593;SDS011;35342;52.378;4.648;2022-07-12T00:23:39;2.75;;;2.55;;
46593;SDS011;35342;52.378;4.648;2022-07-12T00:26:05;4.03;;;2.63;;
46593;SDS011;35342;52.378;4.648;2022-07-12T00:28:31;3.50;;;3.10;;
46593;SDS011;35342;52.378;4.648;2022-07-12T00:30:57;5.97;;;3.20;;
46593;SDS011;35342;52.378;4.648;2022-07-12T00:33:23;3.20;;;2.90;;
46593;SDS011;35342;52.378;4.648;2022-07-12T00:35:49;3.33;;;2.90;;
46593;SDS011;35342;52.378;4.648;2022-07-12T00:38:14;4.90;;;3.13;;
46593;SDS011;35342;52.378;4.648;2022-07-12T00:40:40;5.68;;;3.70;;
46593;SDS011;35342;52.378;4.648;2022-07-12T00:43:05;3.15;;;2.75;;
46593;SDS011;35342;52.378;4.648;2022-07-12T00:45:31;8.27;;;3.33;;
46593;SDS011;35342;52.378;4.648;2022-07-12T00:47:57;3.33;;;3.03;;
46593;SDS011;35342;52.378;4.648;2022-07-12T00:50:23;5.18;;;3.30;;
46593;SDS011;35342;52.378;4.648;2022-07-12T00:52:50;3.80;;;3.25;;
46593;SDS011;35342;52.378;4.648;2022-07-12T00:55:17;5.47;;;3.22;;
46593;SDS011;35342;52.378;4.648;2022-07-12T00:57:44;3.13;;;2.92;;
46593;SDS011;35342;52.378;4.648;2022-07-12T01:00:11;5.72;;;3.90;;
46593;SDS011;35342;52.378;4.648;2022-07-12T01:02:38;3.60;;;3.30;;
46593;SDS011;35342;52.378;4.648;2022-07-12T01:05:05;4.07;;;2.80;;
46593;SDS011;35342;52.378;4.648;2022-07-12T01:07:31;5.30;;;3.85;;
46593;SDS011;35342;52.378;4.648;2022-07-12T01:09:58;3.70;;;3.40;;
46593;SDS011;35342;52.378;4.648;2022-07-12T01:12:24;10.48;;;3.80;;
46593;SDS011;35342;52.378;4.648;2022-07-12T01:14:50;4.22;;;3.75;;
46593;SDS011;35342;52.378;4.648;2022-07-12T01:17:20;4.55;;;4.15;;
46593;SDS011;35342;52.378;4.648;2022-07-12T01:19:51;4.47;;;4.07;;
46593;SDS011;35342;52.378;4.648;2022-07-12T01:22:18;5.60;;;3.92;;
46593;SDS011;35342;52.378;4.648;2022-07-12T01:24:44;7.88;;;4.70;;
46593;SDS011;35342;52.378;4.648;2022-07-12T01:27:11;4.82;;;4.03;;
46593;SDS011;35342;52.378;4.648;2022-07-12T01:29:37;5.65;;;5.10;;
46593;SDS011;35342;52.378;4.648;2022-07-12T01:32:04;5.15;;;4.65;;
46593;SDS011;35342;52.378;4.648;2022-07-12T01:34:50;5.22;;;4.72;;
46593;SDS011;35342;52.378;4.648;2022-07-12T01:37:17;6.13;;;4.53;;
46593;SDS011;35342;52.378;4.648;2022-07-12T01:39:44;4.50;;;4.15;;
46593;SDS011;35342;52.378;4.648;2022-07-12T01:42:10;5.05;;;4.65;;
46593;SDS011;35342;52.378;4.648;2022-07-12T01:44:36;4.30;;;3.90;;
46593;SDS011;35342;52.378;4.648;2022-07-12T01:47:01;6.22;;;4.40;;
46593;SDS011;35342;52.378;4.648;2022-07-12T01:49:28;5.18;;;4.60;;
46593;SDS011;35342;52.378;4.648;2022-07-12T01:51:54;5.07;;;4.57;;
46593;SDS011;35342;52.378;4.648;2022-07-12T01:54:20;4.43;;;4.05;;
46593;SDS011;35342;52.378;4.648;2022-07-12T01:56:46;5.10;;;4.60;;
46593;SDS011;35342;52.378;4.648;2022-07-12T01:59:12;4.65;;;4.25;;
46593;SDS011;35342;52.378;4.648;2022-07-12T02:01:37;5.07;;;4.55;;
46593;SDS011;35342;52.378;4.648;2022-07-12T02:04:03;5.10;;;4.60;;
46593;SDS011;35342;52.378;4.648;2022-07-12T02:06:30;5.25;;;4.68;;
46593;SDS011;35342;52.378;4.648;2022-07-12T02:08:56;5.20;;;4.30;;
46593;SDS011;35342;52.378;4.648;2022-07-12T02:11:21;5.30;;;4.80;;
46593;SDS011;35342;52.378;4.648;2022-07-12T02:13:47;5.03;;;4.35;;
46593;SDS011;35342;52.378;4.648;2022-07-12T02:16:13;5.10;;;4.60;;
46593;SDS011;35342;52.378;4.648;2022-07-12T02:18:38;5.82;;;3.83;;
46593;SDS011;35342;52.378;4.648;2022-07-12T02:21:04;5.45;;;4.80;;
46593;SDS011;35342;52.378;4.648;2022-07-12T02:23:30;6.07;;;4.75;;
46593;SDS011;35342;52.378;4.648;2022-07-12T02:25:56;6.22;;;4.53;;
46593;SDS011;35342;52.378;4.648;2022-07-12T02:28:21;4.93;;;4.50;;
46593;SDS011;35342;52.378;4.648;2022-07-12T02:30:47;4.72;;;4.32;;
46593;SDS011;35342;52.378;4.648;2022-07-12T02:33:12;4.75;;;4.35;;
46593;SDS011;35342;52.378;4.648;2022-07-12T02:35:41;5.13;;;4.60;;
46593;SDS011;35342;52.378;4.648;2022-07-12T02:38:07;5.88;;;4.38;;
46593;SDS011;35342;52.378;4.648;2022-07-12T02:40:34;5.13;;;4.00;;
46593;SDS011;35342;52.378;4.648;2022-07-12T02:43:18;4.82;;;4.32;;
46593;SDS011;35342;52.378;4.648;2022-07-12T02:45:47;4.57;;;4.18;;
46593;SDS011;35342;52.378;4.648;2022-07-12T02:48:13;4.22;;;3.83;;
46593;SDS011;35342;52.378;4.648;2022-07-12T02:50:39;6.30;;;3.65;;
46593;SDS011;35342;52.378;4.648;2022-07-12T02:53:05;6.15;;;3.72;;
46593;SDS011;35342;52.378;4.648;2022-07-12T02:55:31;4.72;;;4.32;;
46593;SDS011;35342;52.378;4.648;2022-07-12T02:57:57;5.78;;;4.30;;
46593;SDS011;35342;52.378;4.648;2022-07-12T03:00:23;5.20;;;4.22;;
46593;SDS011;35342;52.378;4.648;2022-07-12T03:02:48;4.25;;;3.85;;
46593;SDS011;35342;52.378;4.648;2022-07-12T03:05:14;4.55;;;4.00;;
46593;SDS011;35342;52.378;4.648;2022-07-12T03:07:40;6.45;;;3.90;;
46593;SDS011;35342;52.378;4.648;2022-07-12T03:10:05;5.82;;;3.67;;
46593;SDS011;35342;52.378;4.648;2022-07-12T03:12:31;4.80;;;4.35;;
46593;SDS011;35342;52.378;4.648;2022-07-12T03:14:57;5.13;;;4.63;;
46593;SDS011;35342;52.378;4.648;2022-07-12T03:17:22;5.75;;;4.82;;
46593;SDS011;35342;52.378;4.648;2022-07-12T03:19:48;4.90;;;4.28;;
46593;SDS011;35342;52.378;4.648;2022-07-12T03:22:14;6.25;;;4.60;;
46593;SDS011;35342;52.378;4.648;2022-07-12T03:24:39;5.20;;;4.45;;
46593;SDS011;35342;52.378;4.648;2022-07-12T03:27:05;3.83;;;3.53;;
46593;SDS011;35342;52.378;4.648;2022-07-12T03:29:31;6.63;;;4.25;;
46593;SDS011;35342;52.378;4.648;2022-07-12T03:31:57;5.88;;;4.05;;
46593;SDS011;35342;52.378;4.648;2022-07-12T03:34:22;4.30;;;3.75;;
46593;SDS011;35342;52.378;4.648;2022-07-12T03:36:48;4.93;;;4.43;;
46593;SDS011;35342;52.378;4.648;2022-07-12T03:39:13;4.95;;;4.05;;
46593;SDS011;35342;52.378;4.648;2022-07-12T03:41:39;5.47;;;4.88;;
46593;SDS011;35342;52.378;4.648;2022-07-12T03:44:05;5.45;;;4.95;;
46593;SDS011;35342;52.378;4.648;2022-07-12T03:46:31;5.20;;;4.07;;
46593;SDS011;35342;52.378;4.648;2022-07-12T03:48:58;6.35;;;4.18;;
46593;SDS011;35342;52.378;4.648;2022-07-12T03:51:24;7.13;;;4.57;;
46593;SDS011;35342;52.378;4.648;2022-07-12T03:53:50;4.97;;;4.47;;
46593;SDS011;35342;52.378;4.648;2022-07-12T03:56:15;6.53;;;4.60;;
46593;SDS011;35342;52.378;4.648;2022-07-12T03:59:01;6.65;;;4.63;;
46593;SDS011;35342;52.378;4.648;2022-07-12T04:01:27;4.47;;;4.07;;
46593;SDS011;35342;52.378;4.648;2022-07-12T04:03:54;4.85;;;4.18;;
46593;SDS011;35342;52.378;4.648;2022-07-12T04:06:20;4.95;;;4.15;;
46593;SDS011;35342;52.378;4.648;2022-07-12T04:08:46;7.60;;;4.55;;
46593;SDS011;35342;52.378;4.648;2022-07-12T04:11:12;4.35;;;3.95;;
46593;SDS011;35342;52.378;4.648;2022-07-12T04:13:37;4.78;;;4.28;;
46593;SDS011;35342;52.378;4.648;2022-07-12T04:16:03;4.10;;;3.70;;
46593;SDS011;35342;52.378;4.648;2022-07-12T04:18:30;5.95;;;3.97;;
46593;SDS011;35342;52.378;4.648;2022-07-12T04:20:56;5.80;;;4.50;;
46593;SDS011;35342;52.378;4.648;2022-07-12T04:23:21;4.68;;;4.10;;
46593;SDS011;35342;52.378;4.648;2022-07-12T04:25:47;4.35;;;4.00;;
46593;SDS011;35342;52.378;4.648;2022-07-12T04:28:13;4.85;;;3.95;;
46593;SDS011;35342;52.378;4.648;2022-07-12T04:30:38;6.45;;;4.03;;
46593;SDS011;35342;52.378;4.648;2022-07-12T04:33:04;6.03;;;4.15;;
46593;SDS011;35342;52.378;4.648;2022-07-12T04:35:30;4.53;;;4.10;;
46593;SDS011;35342;52.378;4.648;2022-07-12T04:37:56;4.03;;;3.67;;
46593;SDS011;35342;52.378;4.648;2022-07-12T04:40:22;6.25;;;3.67;;
46593;SDS011;35342;52.378;4.648;2022-07-12T04:42:47;4.10;;;3.70;;
46593;SDS011;35342;52.378;4.648;2022-07-12T04:45:13;6.00;;;3.50;;
46593;SDS011;35342;52.378;4.648;2022-07-12T04:47:38;4.72;;;4.00;;
46593;SDS011;35342;52.378;4.648;2022-07-12T04:50:07;5.70;;;3.80;;
46593;SDS011;35342;52.378;4.648;2022-07-12T04:52:33;5.13;;;3.10;;
46593;SDS011;35342;52.378;4.648;2022-07-12T04:54:59;4.20;;;2.75;;
46593;SDS011;35342;52.378;4.648;2022-07-12T04:57:25;3.20;;;2.90;;
46593;SDS011;35342;52.378;4.648;2022-07-12T04:59:51;3.95;;;3.10;;
46593;SDS011;35342;52.378;4.648;2022-07-12T05:02:17;3.17;;;2.88;;
46593;SDS011;35342;52.378;4.648;2022-07-12T05:04:42;9.90;;;3.10;;
46593;SDS011;35342;52.378;4.648;2022-07-12T05:07:09;3.97;;;3.00;;
46593;SDS011;35342;52.378;4.648;2022-07-12T05:09:34;3.00;;;2.17;;
46593;SDS011;35342;52.378;4.648;2022-07-12T05:12:00;5.25;;;3.03;;
46593;SDS011;35342;52.378;4.648;2022-07-12T05:14:25;3.30;;;2.75;;
46593;SDS011;35342;52.378;4.648;2022-07-12T05:16:51;5.07;;;2.78;;
46593;SDS011;35342;52.378;4.648;2022-07-12T05:19:17;4.07;;;2.90;;
46593;SDS011;35342;52.378;4.648;2022-07-12T05:21:43;5.38;;;2.55;;
46593;SDS011;35342;52.378;4.648;2022-07-12T05:24:09;4.72;;;3.05;;
46593;SDS011;35342;52.378;4.648;2022-07-12T05:26:35;6.13;;;2.80;;
46593;SDS011;35342;52.378;4.648;2022-07-12T05:29:00;3.47;;;2.80;;
46593;SDS011;35342;52.378;4.648;2022-07-12T05:31:26;6.53;;;2.65;;
46593;SDS011;35342;52.378;4.648;2022-07-12T05:33:52;2.65;;;2.45;;
46593;SDS011;35342;52.378;4.648;2022-07-12T05:36:18;3.58;;;2.60;;
46593;SDS011;35342;52.378;4.648;2022-07-12T05:38:44;6.90;;;3.13;;
46593;SDS011;35342;52.378;4.648;2022-07-12T05:41:09;4.53;;;2.97;;
46593;SDS011;35342;52.378;4.648;2022-07-12T05:43:35;4.43;;;2.80;;
46593;SDS011;35342;52.378;4.648;2022-07-12T05:46:01;3.15;;;2.70;;
46593;SDS011;35342;52.378;4.648;2022-07-12T05:48:26;4.22;;;2.50;;
46593;SDS011;35342;52.378;4.648;2022-07-12T05:50:52;4.45;;;2.60;;
46593;SDS011;35342;52.378;4.648;2022-07-12T05:53:18;6.03;;;2.72;;
46593;SDS011;35342;52.378;4.648;2022-07-12T05:55:47;3.50;;;2.70;;
46593;SDS011;35342;52.378;4.648;2022-07-12T05:58:14;3.22;;;2.78;;
46593;SDS011;35342;52.378;4.648;2022-07-12T06:00:39;3.67;;;2.28;;
46593;SDS011;35342;52.378;4.648;2022-07-12T06:03:05;4.47;;;2.58;;
46593;SDS011;35342;52.378;4.648;2022-07-12T06:05:30;3.08;;;2.83;;
46593;SDS011;35342;52.378;4.648;2022-07-12T06:07:56;3.63;;;3.00;;
46593;SDS011;35342;52.378;4.648;2022-07-12T06:10:22;3.25;;;2.95;;
46593;SDS011;35342;52.378;4.648;2022-07-12T06:12:48;8.95;;;2.83;;
46593;SDS011;35342;52.378;4.648;2022-07-12T06:15:13;6.18;;;2.75;;
46593;SDS011;35342;52.378;4.648;2022-07-12T06:17:39;2.90;;;2.47;;
46593;SDS011;35342;52.378;4.648;2022-07-12T06:20:05;2.92;;;2.67;;
46593;SDS011;35342;52.378;4.648;2022-07-12T06:22:31;3.78;;;3.28;;
46593;SDS011;35342;52.378;4.648;2022-07-12T06:24:58;4.13;;;2.95;;
46593;SDS011;35342;52.378;4.648;2022-07-12T06:27:24;3.03;;;2.58;;
46593;SDS011;35342;52.378;4.648;2022-07-12T06:29:50;6.00;;;3.15;;
46593;SDS011;35342;52.378;4.648;2022-07-12T06:32:16;4.82;;;3.55;;
46593;SDS011;35342;52.378;4.648;2022-07-12T06:34:42;4.35;;;3.20;;
46593;SDS011;35342;52.378;4.648;2022-07-12T06:37:08;6.72;;;2.83;;
46593;SDS011;35342;52.378;4.648;2022-07-12T06:39:36;5.25;;;3.00;;
46593;SDS011;35342;52.378;4.648;2022-07-12T06:42:02;3.17;;;2.78;;
46593;SDS011;35342;52.378;4.648;2022-07-12T06:44:32;3.38;;;2.78;;
46593;SDS011;35342;52.378;4.648;2022-07-12T06:46:59;3.35;;;2.72;;
46593;SDS011;35342;52.378;4.648;2022-07-12T06:49:25;3.65;;;2.85;;
46593;SDS011;35342;52.378;4.648;2022-07-12T06:51:51;3.45;;;2.63;;
46593;SDS011;35342;52.378;4.648;2022-07-12T06:54:16;2.78;;;2.38;;
46593;SDS011;35342;52.378;4.648;2022-07-12T06:56:42;3.35;;;2.03;;
46593;SDS011;35342;52.378;4.648;2022-07-12T06:59:08;5.13;;;2.75;;
46593;SDS011;35342;52.378;4.648;2022-07-12T07:01:36;4.60;;;2.20;;
46593;SDS011;35342;52.378;4.648;2022-07-12T07:04:02;5.75;;;2.45;;
46593;SDS011;35342;52.378;4.648;2022-07-12T07:06:29;5.28;;;2.53;;
46593;SDS011;35342;52.378;4.648;2022-07-12T07:08:55;3.63;;;2.60;;
46593;SDS011;35342;52.378;4.648;2022-07-12T07:11:20;6.28;;;3.22;;
46593;SDS011;35342;52.378;4.648;2022-07-12T07:13:46;2.35;;;2.08;;
46593;SDS011;35342;52.378;4.648;2022-07-12T07:16:12;4.00;;;2.30;;
46593;SDS011;35342;52.378;4.648;2022-07-12T07:18:39;2.65;;;2.35;;
46593;SDS011;35342;52.378;4.648;2022-07-12T07:21:05;4.22;;;2.80;;
46593;SDS011;35342;52.378;4.648;2022-07-12T07:23:31;3.47;;;2.45;;
46593;SDS011;35342;52.378;4.648;2022-07-12T07:25:59;2.55;;;2.35;;
46593;SDS011;35342;52.378;4.648;2022-07-12T07:28:25;4.95;;;3.00;;
46593;SDS011;35342;52.378;4.648;2022-07-12T07:30:51;2.70;;;2.05;;
46593;SDS011;35342;52.378;4.648;2022-07-12T07:33:23;3.90;;;2.63;;
46593;SDS011;35342;52.378;4.648;2022-07-12T07:35:50;5.70;;;2.40;;
46593;SDS011;35342;52.378;4.648;2022-07-12T07:38:17;2.10;;;1.90;;
46593;SDS011;35342;52.378;4.648;2022-07-12T07:40:44;2.80;;;2.60;;
46593;SDS011;35342;52.378;4.648;2022-07-12T07:43:10;2.45;;;2.25;;
46593;SDS011;35342;52.378;4.648;2022-07-12T07:45:36;3.60;;;2.25;;
46593;SDS011;35342;52.378;4.648;2022-07-12T07:48:02;2.35;;;2.15;;
46593;SDS011;35342;52.378;4.648;2022-07-12T07:50:28;6.00;;;2.20;;
46593;SDS011;35342;52.378;4.648;2022-07-12T07:52:55;5.93;;;1.77;;
46593;SDS011;35342;52.378;4.648;2022-07-12T07:55:21;4.00;;;2.03;;
46593;SDS011;35342;52.378;4.648;2022-07-12T07:57:46;3.88;;;1.92;;
46593;SDS011;35342;52.378;4.648;2022-07-12T08:00:12;2.10;;;1.40;;
46593;SDS011;35342;52.378;4.648;2022-07-12T08:02:39;2.47;;;1.30;;
46593;SDS011;35342;52.378;4.648;2022-07-12T08:05:06;5.57;;;1.90;;
46593;SDS011;35342;52.378;4.648;2022-07-12T08:07:32;1.95;;;1.30;;
46593;SDS011;35342;52.378;4.648;2022-07-12T08:09:57;2.95;;;1.20;;
46593;SDS011;35342;52.378;4.648;2022-07-12T08:12:23;1.98;;;1.00;;
46593;SDS011;35342;52.378;4.648;2022-07-12T08:14:48;1.67;;;1.25;;
46593;SDS011;35342;52.378;4.648;2022-07-12T08:17:14;1.95;;;1.63;;
46593;SDS011;35342;52.378;4.648;2022-07-12T08:19:40;2.95;;;1.23;;
46593;SDS011;35342;52.378;4.648;2022-07-12T08:22:05;2.58;;;1.00;;
46593;SDS011;35342;52.378;4.648;2022-07-12T08:24:31;1.40;;;1.30;;
46593;SDS011;35342;52.378;4.648;2022-07-12T08:26:56;1.60;;;1.17;;
46593;SDS011;35342;52.378;4.648;2022-07-12T08:29:22;1.92;;;1.08;;
46593;SDS011;35342;52.378;4.648;2022-07-12T08:31:48;4.10;;;1.75;;
46593;SDS011;35342;52.378;4.648;2022-07-12T08:34:13;3.25;;;1.30;;
46593;SDS011;35342;52.378;4.648;2022-07-12T08:36:39;3.35;;;1.77;;
46593;SDS011;35342;52.378;4.648;2022-07-12T08:39:05;1.60;;;1.50;;
46593;SDS011;35342;52.378;4.648;2022-07-12T08:41:30;2.10;;;1.90;;
46593;SDS011;35342;52.378;4.648;2022-07-12T08:43:56;1.40;;;1.30;;
46593;SDS011;35342;52.378;4.648;2022-07-12T08:46:21;2.60;;;2.00;;
46593;SDS011;35342;52.378;4.648;2022-07-12T08:48:47;3.58;;;1.60;;
46593;SDS011;35342;52.378;4.648;2022-07-12T08:51:14;4.43;;;2.10;;
46593;SDS011;35342;52.378;4.648;2022-07-12T08:53:43;3.28;;;2.00;;
46593;SDS011;35342;52.378;4.648;2022-07-12T08:56:29;6.65;;;2.08;;
46593;SDS011;35342;52.378;4.648;2022-07-12T08:59:17;2.28;;;1.90;;
46593;SDS011;35342;52.378;4.648;2022-07-12T09:01:50;6.35;;;1.90;;
46593;SDS011;35342;52.378;4.648;2022-07-12T09:04:20;3.67;;;2.13;;
46593;SDS011;35342;52.378;4.648;2022-07-12T09:06:49;3.13;;;2.10;;
46593;SDS011;35342;52.378;4.648;2022-07-12T09:09:28;3.45;;;2.45;;
46593;SDS011;35342;52.378;4.648;2022-07-12T09:11:54;2.53;;;2.13;;
46593;SDS011;35342;52.378;4.648;2022-07-12T09:14:20;2.30;;;2.10;;
46593;SDS011;35342;52.378;4.648;2022-07-12T09:17:05;3.55;;;2.33;;
46593;SDS011;35342;52.378;4.648;2022-07-12T09:19:37;2.45;;;2.15;;
46593;SDS011;35342;52.378;4.648;2022-07-12T09:22:04;5.07;;;2.30;;
46593;SDS011;35342;52.378;4.648;2022-07-12T09:24:31;4.65;;;2.50;;
46593;SDS011;35342;52.378;4.648;2022-07-12T09:26:59;3.22;;;2.30;;
46593;SDS011;35342;52.378;4.648;2022-07-12T09:29:26;4.57;;;2.42;;
46593;SDS011;35342;52.378;4.648;2022-07-12T09:31:52;3.13;;;2.47;;
46593;SDS011;35342;52.378;4.648;2022-07-12T09:34:37;4.13;;;2.88;;
46593;SDS011;35342;52.378;4.648;2022-07-12T09:37:21;4.63;;;3.13;;
46593;SDS011;35342;52.378;4.648;2022-07-12T09:39:47;3.35;;;2.92;;
46593;SDS011;35342;52.378;4.648;2022-07-12T09:42:13;4.43;;;2.88;;
46593;SDS011;35342;52.378;4.648;2022-07-12T09:44:42;3.08;;;2.25;;
46593;SDS011;35342;52.378;4.648;2022-07-12T09:47:11;5.22;;;2.42;;
46593;SDS011;35342;52.378;4.648;2022-07-12T09:52:09;2.95;;;2.65;;
46593;SDS011;35342;52.378;4.648;2022-07-12T09:54:38;4.50;;;3.00;;
46593;SDS011;35342;52.378;4.648;2022-07-12T09:57:08;3.92;;;3.45;;
46593;SDS011;35342;52.378;4.648;2022-07-12T09:59:43;8.05;;;3.75;;
46593;SDS011;35342;52.378;4.648;2022-07-12T10:02:08;4.65;;;3.55;;
46593;SDS011;35342;52.378;4.648;2022-07-12T10:04:37;6.25;;;4.03;;
46593;SDS011;35342;52.378;4.648;2022-07-12T10:07:03;3.95;;;3.00;;
46593;SDS011;35342;52.378;4.648;2022-07-12T10:09:29;3.78;;;2.78;;
46593;SDS011;35342;52.378;4.648;2022-07-12T10:11:57;2.83;;;2.58;;
46593;SDS011;35342;52.378;4.648;2022-07-12T10:14:22;3.95;;;2.50;;
46593;SDS011;35342;52.378;4.648;2022-07-12T10:16:50;2.38;;;2.17;;
46593;SDS011;35342;52.378;4.648;2022-07-12T10:19:29;3.65;;;1.95;;
46593;SDS011;35342;52.378;4.648;2022-07-12T10:21:58;3.55;;;2.08;;
46593;SDS011;35342;52.378;4.648;2022-07-12T10:26:56;2.67;;;2.35;;
46593;SDS011;35342;52.378;4.648;2022-07-12T10:29:25;4.32;;;1.77;;
46593;SDS011;35342;52.378;4.648;2022-07-12T10:31:51;2.20;;;2.00;;
46593;SDS011;35342;52.378;4.648;2022-07-12T10:34:24;3.42;;;2.25;;
46593;SDS011;35342;52.378;4.648;2022-07-12T10:39:22;2.30;;;2.10;;
46593;SDS011;35342;52.378;4.648;2022-07-12T10:44:33;2.80;;;2.10;;
46593;SDS011;35342;52.378;4.648;2022-07-12T10:47:00;4.68;;;2.90;;
46593;SDS011;35342;52.378;4.648;2022-07-12T10:49:27;2.90;;;2.10;;
46593;SDS011;35342;52.378;4.648;2022-07-12T10:54:35;5.63;;;3.50;;
46593;SDS011;35342;52.378;4.648;2022-07-12T10:57:01;4.78;;;2.45;;
46593;SDS011;35342;52.378;4.648;2022-07-12T10:59:28;2.33;;;2.13;;
46593;SDS011;35342;52.378;4.648;2022-07-12T11:01:55;5.55;;;2.10;;
46593;SDS011;35342;52.378;4.648;2022-07-12T11:04:21;4.85;;;2.60;;
46593;SDS011;35342;52.378;4.648;2022-07-12T11:06:47;3.15;;;2.70;;
46593;SDS011;35342;52.378;4.648;2022-07-12T11:09:16;5.95;;;2.40;;
46593;SDS011;35342;52.378;4.648;2022-07-12T11:11:46;5.47;;;2.50;;
46593;SDS011;35342;52.378;4.648;2022-07-12T11:14:20;6.35;;;2.70;;
46593;SDS011;35342;52.378;4.648;2022-07-12T11:16:55;5.45;;;3.63;;
46593;SDS011;35342;52.378;4.648;2022-07-12T11:19:23;5.13;;;2.72;;
46593;SDS011;35342;52.378;4.648;2022-07-12T11:21:49;5.22;;;2.90;;
46593;SDS011;35342;52.378;4.648;2022-07-12T11:24:24;5.22;;;2.90;;
46593;SDS011;35342;52.378;4.648;2022-07-12T11:26:51;4.72;;;3.00;;
46593;SDS011;35342;52.378;4.648;2022-07-12T11:29:17;4.75;;;2.88;;
46593;SDS011;35342;52.378;4.648;2022-07-12T11:31:44;5.15;;;3.03;;
46593;SDS011;35342;52.378;4.648;2022-07-12T11:34:23;6.20;;;2.80;;
46593;SDS011;35342;52.378;4.648;2022-07-12T11:36:53;8.35;;;3.00;;
46593;SDS011;35342;52.378;4.648;2022-07-12T11:39:38;5.50;;;3.40;;
46593;SDS011;35342;52.378;4.648;2022-07-12T11:42:05;5.30;;;2.67;;
46593;SDS011;35342;52.378;4.648;2022-07-12T11:47:10;4.97;;;3.45;;
46593;SDS011;35342;52.378;4.648;2022-07-12T11:49:36;8.20;;;3.47;;
46593;SDS011;35342;52.378;4.648;2022-07-12T11:52:04;4.32;;;3.92;;
46593;SDS011;35342;52.378;4.648;2022-07-12T11:54:30;5.32;;;3.70;;
46593;SDS011;35342;52.378;4.648;2022-07-12T11:57:09;4.82;;;3.88;;
46593;SDS011;35342;52.378;4.648;2022-07-12T11:59:35;5.47;;;3.60;;
46593;SDS011;35342;52.378;4.648;2022-07-12T12:02:08;4.88;;;3.42;;
46593;SDS011;35342;52.378;4.648;2022-07-12T12:07:15;5.85;;;3.65;;
46593;SDS011;35342;52.378;4.648;2022-07-12T12:12:34;5.85;;;4.25;;
46593;SDS011;35342;52.378;4.648;2022-07-12T12:15:10;6.07;;;3.60;;
46593;SDS011;35342;52.378;4.648;2022-07-12T12:17:42;5.47;;;3.95;;
46593;SDS011;35342;52.378;4.648;2022-07-12T12:20:13;5.28;;;3.28;;
46593;SDS011;35342;52.378;4.648;2022-07-12T12:22:42;6.50;;;3.72;;
46593;SDS011;35342;52.378;4.648;2022-07-12T12:25:09;4.88;;;3.92;;
46593;SDS011;35342;52.378;4.648;2022-07-12T12:27:42;5.03;;;3.42;;
46593;SDS011;35342;52.378;4.648;2022-07-12T12:30:12;3.58;;;3.15;;
46593;SDS011;35342;52.378;4.648;2022-07-12T12:32:53;3.50;;;3.00;;
46593;SDS011;35342;52.378;4.648;2022-07-12T12:37:55;5.28;;;3.40;;
46593;SDS011;35342;52.378;4.648;2022-07-12T12:40:23;4.72;;;2.95;;
46593;SDS011;35342;52.378;4.648;2022-07-12T12:42:50;8.63;;;3.28;;
46593;SDS011;35342;52.378;4.648;2022-07-12T12:45:20;3.55;;;3.25;;
46593;SDS011;35342;52.378;4.648;2022-07-12T12:47:51;7.97;;;4.22;;
46593;SDS011;35342;52.378;4.648;2022-07-12T12:50:27;5.07;;;4.57;;
46593;SDS011;35342;52.378;4.648;2022-07-12T12:56:06;8.40;;;6.00;;
46593;SDS011;35342;52.378;4.648;2022-07-12T12:58:36;7.05;;;4.85;;
46593;SDS011;35342;52.378;4.648;2022-07-12T13:01:02;6.20;;;4.57;;
46593;SDS011;35342;52.378;4.648;2022-07-12T13:03:28;7.57;;;3.80;;
46593;SDS011;35342;52.378;4.648;2022-07-12T13:05:54;5.68;;;3.70;;
46593;SDS011;35342;52.378;4.648;2022-07-12T13:08:20;4.93;;;4.40;;
46593;SDS011;35342;52.378;4.648;2022-07-12T13:10:46;6.05;;;5.10;;
46593;SDS011;35342;52.378;4.648;2022-07-12T13:13:12;5.28;;;4.20;;
46593;SDS011;35342;52.378;4.648;2022-07-12T13:15:39;5.75;;;3.65;;
46593;SDS011;35342;52.378;4.648;2022-07-12T13:18:05;8.25;;;3.88;;
46593;SDS011;35342;52.378;4.648;2022-07-12T13:20:31;7.13;;;4.13;;
46593;SDS011;35342;52.378;4.648;2022-07-12T13:22:58;5.28;;;3.53;;
46593;SDS011;35342;52.378;4.648;2022-07-12T13:25:24;3.80;;;3.40;;
46593;SDS011;35342;52.378;4.648;2022-07-12T13:27:50;7.38;;;3.55;;
46593;SDS011;35342;52.378;4.648;2022-07-12T13:30:17;6.15;;;3.72;;
46593;SDS011;35342;52.378;4.648;2022-07-12T13:32:43;4.38;;;3.20;;
46593;SDS011;35342;52.378;4.648;2022-07-12T13:35:09;7.97;;;3.72;;
46593;SDS011;35342;52.378;4.648;2022-07-12T13:37:36;3.97;;;3.65;;
46593;SDS011;35342;52.378;4.648;2022-07-12T13:40:05;4.18;;;3.40;;
46593;SDS011;35342;52.378;4.648;2022-07-12T13:42:40;7.18;;;3.40;;
46593;SDS011;35342;52.378;4.648;2022-07-12T13:45:07;4.18;;;3.22;;
46593;SDS011;35342;52.378;4.648;2022-07-12T13:47:37;4.35;;;3.95;;
46593;SDS011;35342;52.378;4.648;2022-07-12T13:50:04;4.90;;;3.45;;
46593;SDS011;35342;52.378;4.648;2022-07-12T13:52:31;4.75;;;3.92;;
46593;SDS011;35342;52.378;4.648;2022-07-12T13:54:56;3.05;;;2.70;;
46593;SDS011;35342;52.378;4.648;2022-07-12T13:57:22;3.10;;;2.80;;
46593;SDS011;35342;52.378;4.648;2022-07-12T13:59:48;4.55;;;3.47;;
46593;SDS011;35342;52.378;4.648;2022-07-12T14:02:14;5.55;;;3.38;;
46593;SDS011;35342;52.378;4.648;2022-07-12T14:04:40;4.43;;;2.88;;
46593;SDS011;35342;52.378;4.648;2022-07-12T14:07:06;8.57;;;3.38;;
46593;SDS011;35342;52.378;4.648;2022-07-12T14:09:31;5.80;;;2.60;;
46593;SDS011;35342;52.378;4.648;2022-07-12T14:11:57;3.72;;;2.40;;
46593;SDS011;35342;52.378;4.648;2022-07-12T14:14:23;5.15;;;2.75;;
46593;SDS011;35342;52.378;4.648;2022-07-12T14:17:08;4.45;;;2.30;;
46593;SDS011;35342;52.378;4.648;2022-07-12T14:19:34;4.20;;;2.40;;
46593;SDS011;35342;52.378;4.648;2022-07-12T14:22:01;3.72;;;3.30;;
46593;SDS011;35342;52.378;4.648;2022-07-12T14:24:27;4.53;;;2.65;;
46593;SDS011;35342;52.378;4.648;2022-07-12T14:26:53;3.08;;;2.25;;
46593;SDS011;35342;52.378;4.648;2022-07-12T14:29:19;3.70;;;2.28;;
46593;SDS011;35342;52.378;4.648;2022-07-12T14:31:44;3.47;;;2.30;;
46593;SDS011;35342;52.378;4.648;2022-07-12T14:34:10;5.18;;;2.15;;
46593;SDS011;35342;52.378;4.648;2022-07-12T14:36:37;2.40;;;1.90;;
46593;SDS011;35342;52.378;4.648;2022-07-12T14:39:03;6.45;;;2.40;;
46593;SDS011;35342;52.378;4.648;2022-07-12T14:41:29;4.57;;;2.10;;
46593;SDS011;35342;52.378;4.648;2022-07-12T14:43:54;7.03;;;4.20;;
46593;SDS011;35342;52.378;4.648;2022-07-12T14:46:22;6.75;;;2.83;;
46593;SDS011;35342;52.378;4.648;2022-07-12T14:48:47;2.72;;;2.10;;
46593;SDS011;35342;52.378;4.648;2022-07-12T14:51:13;2.63;;;2.42;;
46593;SDS011;35342;52.378;4.648;2022-07-12T14:53:39;3.60;;;1.85;;
46593;SDS011;35342;52.378;4.648;2022-07-12T14:56:05;4.82;;;1.80;;
46593;SDS011;35342;52.378;4.648;2022-07-12T14:58:31;2.25;;;1.80;;
46593;SDS011;35342;52.378;4.648;2022-07-12T15:00:57;3.42;;;1.50;;
46593;SDS011;35342;52.378;4.648;2022-07-12T15:03:23;2.08;;;1.38;;
46593;SDS011;35342;52.378;4.648;2022-07-12T15:05:49;4.82;;;2.80;;
46593;SDS011;35342;52.378;4.648;2022-07-12T15:08:14;11.80;;;2.58;;
46593;SDS011;35342;52.378;4.648;2022-07-12T15:10:40;4.30;;;2.25;;
46593;SDS011;35342;52.378;4.648;2022-07-12T15:13:06;2.97;;;2.20;;
46593;SDS011;35342;52.378;4.648;2022-07-12T15:15:32;3.72;;;2.13;;